Cruise inventory

MV Dawn Sky DSK1/86

Cruise summary report

Cruise Info. 
Ship name (ship code)MV Dawn Sky (74GS)
Cruise identifierDSK1/86
Cruise period1986-06-02 — 1986-06-15
StatusCompleted
Port of departureFleetwood, United Kingdom
Port of returnDunstaffnage, United Kingdom
ObjectivesCharter - Current meters; tetrapod and guard buoys; water sampling and surveys; nutrient and phytoplankton distribution mapping
Chief scientistAnton Edwards (Scottish Marine Biological Association)
Cruise reportMV Dawn Sky DSK1/86 cruise report dawn_sky_jun86.pdf — access key 'C' (0.34 MB) 
Ocean/sea areas 
GeneralIrish Sea and St. George's Channel
North East Atlantic Ocean (limit 40W)
SpecificIrish Sea; The Minches; Clyde Sea
Track chartsMV Dawn Sky DSK1/86 cruise track — trk3166.html
Measurements 
Physical oceanography 
Water bottle stationsQuantity: number of stations = 145
Description: S only 3 S bottom
CTD stationsQuantity: number of stations = 148
Description: Data received, but rejected(413D)
Current metersQuantity: 20
Description: relaid
Chemical oceanography 
NitrateQuantity: 47
SilicateQuantity: 47
pHQuantity: 47
IsotopesQuantity: number of samples = 73
Description: Cs-137
Contamination 
Suspended matterQuantity: number of samples = 1
Description: Tetrapod suspended sediment samples taken at surface,mid and bottom dephts every hour for 12 hours
Biology and fisheries 
Phytoplankton pigs (eg chlorophyll, fluorescence)Quantity: 147
Data held at BODC 
Series/Profiles 
148  CTD/STD cast
Vertical spatial coordinates
Salinity of the water column
Temperature of the water column
Vertical spatial coordinates
Salinity of the water column
Temperature of the water column

BODC idDate/TimeLocationDoc.
3459131986-06-12 21:06 56° 19' 59" N  5° 41' 30" W  View metadata report for BODC series reference number 345913
3459251986-06-12 22:33 56° 17' 30" N  5° 49' 59" W  View metadata report for BODC series reference number 345925
3459371986-06-12 23:59 56° 16' 29" N  6° 4' 59" W  View metadata report for BODC series reference number 345937
3459491986-06-13 00:53 56° 13' 59" N  6° 2' 12" W  View metadata report for BODC series reference number 345949
3459501986-06-13 01:56 56° 10' 59" N  5° 58' 59" W  View metadata report for BODC series reference number 345950
3459621986-06-13 02:52 56° 7' 59" N  5° 55' 47" W  View metadata report for BODC series reference number 345962
3459741986-06-13 03:36 56° 5' 30" N  5° 52' 59" W  View metadata report for BODC series reference number 345974
3459861986-06-13 05:12 56° 11' 30" N  6° 10' 0" W  View metadata report for BODC series reference number 345986
3459981986-06-13 06:44 56° 8' 59" N  6° 19' 59" W  View metadata report for BODC series reference number 345998
3460011986-06-13 08:05 56° 10' 0" N  6° 30' 0" W  View metadata report for BODC series reference number 346001
3460131986-06-13 09:52 56° 10' 0" N  6° 45' 0" W  View metadata report for BODC series reference number 346013
3460251986-06-13 11:26 56° 10' 0" N  7° 0' 0" W  View metadata report for BODC series reference number 346025
3460371986-06-13 12:52 56° 10' 0" N  7° 15' 0" W  View metadata report for BODC series reference number 346037
3460491986-06-13 14:45 56° 10' 0" N  7° 30' 0" W  View metadata report for BODC series reference number 346049
3460501986-06-13 17:21 56° 10' 0" N  7° 45' 0" W  View metadata report for BODC series reference number 346050
3460621986-06-13 19:00 56° 10' 0" N  8° 0' 0" W  View metadata report for BODC series reference number 346062
3460741986-06-13 21:14 56° 10' 0" N  8° 15' 0" W  View metadata report for BODC series reference number 346074
3460861986-06-14 02:13 56° 43' 59" N  7° 40' 0" W  View metadata report for BODC series reference number 346086
3460981986-06-14 04:09 56° 43' 59" N  7° 30' 0" W  View metadata report for BODC series reference number 346098
3461051986-06-14 05:19 56° 43' 59" N  7° 19' 59" W  View metadata report for BODC series reference number 346105
3461171986-06-14 07:44 56° 43' 59" N  7° 0' 0" W  View metadata report for BODC series reference number 346117
3461291986-06-14 10:01 56° 43' 59" N  6° 45' 0" W  View metadata report for BODC series reference number 346129
3461301986-06-14 11:41 56° 43' 59" N  6° 27' 0" W  View metadata report for BODC series reference number 346130
3461421986-06-14 13:56 56° 49' 0" N  6° 12' 0" W  View metadata report for BODC series reference number 346142
3461541986-06-14 15:03 56° 45' 0" N  6° 16' 0" W  View metadata report for BODC series reference number 346154
3461661986-06-14 18:53 56° 40' 59" N  6° 13' 0" W  View metadata report for BODC series reference number 346166
3461781986-06-14 19:15 56° 40' 29" N  6° 10' 29" W  View metadata report for BODC series reference number 346178
3456241986-06-10 15:39 55° 13' 59" N  5° 12' 0" W  View metadata report for BODC series reference number 345624
3456361986-06-10 16:42 55° 13' 59" N  5° 2' 59" W  View metadata report for BODC series reference number 345636
3456481986-06-10 17:29 55° 13' 0" N  4° 58' 0" W  View metadata report for BODC series reference number 345648
3456611986-06-10 18:31 55° 4' 59" N  5° 4' 0" W  View metadata report for BODC series reference number 345661
3456731986-06-10 18:55 55° 6' 0" N  5° 7' 59" W  View metadata report for BODC series reference number 345673
3456851986-06-10 19:42 55° 7' 59" N  5° 13' 0" W  View metadata report for BODC series reference number 345685
3456971986-06-10 20:55 55° 8' 59" N  5° 19' 0" W  View metadata report for BODC series reference number 345697
3457041986-06-10 22:05 55° 12' 0" N  5° 27' 0" W  View metadata report for BODC series reference number 345704
3457161986-06-10 22:57 55° 16' 0" N  5° 30' 0" W  View metadata report for BODC series reference number 345716
3457281986-06-11 00:47 55° 4' 0" N  5° 16' 0" W  View metadata report for BODC series reference number 345728
3457411986-06-11 02:49 55° 4' 59" N  5° 25' 59" W  View metadata report for BODC series reference number 345741
3457531986-06-11 05:32 55° 16' 59" N  5° 43' 29" W  View metadata report for BODC series reference number 345753
3457651986-06-11 06:02 55° 15' 11" N  5° 47' 30" W  View metadata report for BODC series reference number 345765
3457771986-06-11 07:13 55° 13' 5" N  5° 52' 0" W  View metadata report for BODC series reference number 345777
3457891986-06-11 08:21 55° 11' 23" N  5° 55' 59" W  View metadata report for BODC series reference number 345789
3457901986-06-11 09:15 55° 9' 29" N  6° 0' 0" W  View metadata report for BODC series reference number 345790
3458081986-06-11 13:40 55° 13' 59" N  6° 45' 0" W  View metadata report for BODC series reference number 345808
3458211986-06-11 14:36 55° 18' 42" N  6° 41' 12" W  View metadata report for BODC series reference number 345821
3458331986-06-11 15:30 55° 23' 17" N  6° 37' 18" W  View metadata report for BODC series reference number 345833
3458451986-06-11 16:38 55° 28' 0" N  6° 33' 29" W  View metadata report for BODC series reference number 345845
3458571986-06-11 17:28 55° 32' 42" N  6° 29' 42" W  View metadata report for BODC series reference number 345857
3458691986-06-11 18:21 55° 37' 18" N  6° 25' 47" W  View metadata report for BODC series reference number 345869
3458701986-06-11 19:14 55° 42' 0" N  6° 22' 0" W  View metadata report for BODC series reference number 345870
3458821986-06-12 04:21 56° 40' 0" N  6° 7' 59" W  View metadata report for BODC series reference number 345882
3458941986-06-12 05:50 56° 40' 59" N  6° 16' 59" W  View metadata report for BODC series reference number 345894
3459011986-06-12 07:19 56° 43' 59" N  6° 27' 0" W  View metadata report for BODC series reference number 345901
3455681986-06-10 11:47 55° 22' 0" N  5° 12' 0" W  View metadata report for BODC series reference number 345568
3455811986-06-10 12:40 55° 23' 59" N  5° 19' 59" W  View metadata report for BODC series reference number 345581
3455931986-06-10 13:27 55° 22' 0" N  5° 27' 0" W  View metadata report for BODC series reference number 345593
3456001986-06-10 14:17 55° 19' 0" N  5° 19' 59" W  View metadata report for BODC series reference number 345600
3456121986-06-10 15:10 55° 16' 0" N  5° 13' 0" W  View metadata report for BODC series reference number 345612
3450461986-06-06 22:11 55° 4' 59" N  5° 25' 59" W  View metadata report for BODC series reference number 345046
3450581986-06-06 23:09 55° 8' 59" N  5° 31' 59" W  View metadata report for BODC series reference number 345058
3450711986-06-07 00:15 55° 13' 0" N  5° 37' 59" W  View metadata report for BODC series reference number 345071
3450831986-06-07 01:27 55° 12' 0" N  5° 25' 59" W  View metadata report for BODC series reference number 345083
3450951986-06-07 02:05 55° 13' 0" N  5° 24' 0" W  View metadata report for BODC series reference number 345095
3451021986-06-07 02:35 55° 13' 59" N  5° 22' 0" W  View metadata report for BODC series reference number 345102
3451141986-06-07 03:13 55° 15' 0" N  5° 19' 59" W  View metadata report for BODC series reference number 345114
3451261986-06-07 03:38 55° 16' 0" N  5° 17' 59" W  View metadata report for BODC series reference number 345126
3451381986-06-07 04:02 55° 16' 59" N  5° 16' 0" W  View metadata report for BODC series reference number 345138
3451511986-06-07 04:27 55° 17' 59" N  5° 13' 59" W  View metadata report for BODC series reference number 345151
3451631986-06-07 04:50 55° 19' 0" N  5° 12' 0" W  View metadata report for BODC series reference number 345163
3451751986-06-07 05:12 55° 19' 59" N  5° 10' 0" W  View metadata report for BODC series reference number 345175
3451871986-06-07 05:35 55° 21' 0" N  5° 7' 59" W  View metadata report for BODC series reference number 345187
3451991986-06-07 05:54 55° 22' 0" N  5° 5' 59" W  View metadata report for BODC series reference number 345199
3452061986-06-07 21:10 55° 13' 0" N  5° 37' 59" W  View metadata report for BODC series reference number 345206
3452181986-06-07 22:48 55° 16' 0" N  5° 30' 0" W  View metadata report for BODC series reference number 345218
3452311986-06-07 23:57 55° 19' 59" N  5° 28' 0" W  View metadata report for BODC series reference number 345231
3452431986-06-08 00:36 55° 22' 0" N  5° 27' 0" W  View metadata report for BODC series reference number 345243
3452551986-06-08 01:43 55° 27' 0" N  5° 28' 0" W  View metadata report for BODC series reference number 345255
3452671986-06-08 02:51 55° 31' 0" N  5° 22' 59" W  View metadata report for BODC series reference number 345267
3452791986-06-08 03:34 55° 31' 0" N  5° 27' 0" W  View metadata report for BODC series reference number 345279
3452801986-06-08 04:17 55° 34' 0" N  5° 25' 0" W  View metadata report for BODC series reference number 345280
3452921986-06-08 05:39 55° 38' 59" N  5° 25' 59" W  View metadata report for BODC series reference number 345292
3453111986-06-08 06:27 55° 42' 0" N  5° 20' 59" W  View metadata report for BODC series reference number 345311
3453231986-06-08 08:02 55° 45' 0" N  5° 16' 0" W  View metadata report for BODC series reference number 345323
3453351986-06-08 17:37 55° 46' 59" N  5° 13' 59" W  View metadata report for BODC series reference number 345335
3453471986-06-08 18:55 55° 49' 59" N  5° 16' 59" W  View metadata report for BODC series reference number 345347
3453591986-06-08 20:42 55° 53' 59" N  5° 22' 59" W  View metadata report for BODC series reference number 345359
3453601986-06-08 22:17 55° 58' 0" N  5° 22' 59" W  View metadata report for BODC series reference number 345360
3453721986-06-09 01:32 55° 42' 0" N  5° 9' 0" W  View metadata report for BODC series reference number 345372
3453841986-06-09 02:44 55° 42' 0" N  5° 4' 0" W  View metadata report for BODC series reference number 345384
3453961986-06-09 04:14 55° 49' 59" N  4° 58' 0" W  View metadata report for BODC series reference number 345396
3454031986-06-09 04:52 55° 49' 59" N  4° 55' 0" W  View metadata report for BODC series reference number 345403
3454151986-06-09 19:22 55° 38' 59" N  4° 55' 0" W  View metadata report for BODC series reference number 345415
3454271986-06-09 20:06 55° 37' 59" N  5° 0' 0" W  View metadata report for BODC series reference number 345427
3454391986-06-09 21:19 55° 36' 0" N  5° 4' 59" W  View metadata report for BODC series reference number 345439
3454401986-06-09 23:15 55° 28' 0" N  4° 45' 0" W  View metadata report for BODC series reference number 345440
3454521986-06-10 00:05 55° 28' 0" N  4° 49' 59" W  View metadata report for BODC series reference number 345452
3454641986-06-10 00:45 55° 28' 59" N  4° 55' 0" W  View metadata report for BODC series reference number 345464
3454761986-06-10 01:31 55° 28' 59" N  5° 1' 0" W  View metadata report for BODC series reference number 345476
3454881986-06-10 03:01 55° 34' 0" N  4° 58' 59" W  View metadata report for BODC series reference number 345488
3455071986-06-10 05:06 55° 22' 59" N  5° 4' 59" W  View metadata report for BODC series reference number 345507
3455191986-06-10 06:54 55° 22' 0" N  4° 50' 59" W  View metadata report for BODC series reference number 345519
3455201986-06-10 07:47 55° 22' 0" N  4° 58' 0" W  View metadata report for BODC series reference number 345520
3455321986-06-10 09:06 55° 16' 0" N  4° 55' 59" W  View metadata report for BODC series reference number 345532
3455441986-06-10 10:08 55° 19' 0" N  5° 19' 59" W  View metadata report for BODC series reference number 345544
3455561986-06-10 10:47 55° 19' 59" N  5° 7' 59" W  View metadata report for BODC series reference number 345556
3449951986-06-06 15:30 54° 44' 48" N  5° 15' 0" W  View metadata report for BODC series reference number 344995
3450091986-06-06 17:06 54° 46' 23" N  5° 10' 0" W  View metadata report for BODC series reference number 345009
3450101986-06-06 18:28 54° 47' 59" N  5° 4' 59" W  View metadata report for BODC series reference number 345010
3450221986-06-06 20:12 54° 57' 0" N  5° 13' 59" W  View metadata report for BODC series reference number 345022
3450341986-06-06 21:07 55° 1' 0" N  5° 19' 59" W  View metadata report for BODC series reference number 345034
3446571986-06-02 21:09 53° 25' 0" N  4° 37' 0" W  View metadata report for BODC series reference number 344657
3446691986-06-03 08:26 53° 36' 0" N  4° 37' 59" W  View metadata report for BODC series reference number 344669
3446701986-06-03 12:22 53° 46' 59" N  4° 39' 0" W  View metadata report for BODC series reference number 344670
3446821986-06-03 15:11 53° 58' 0" N  4° 40' 0" W  View metadata report for BODC series reference number 344682
3446941986-06-03 21:02 54° 19' 0" N  4° 13' 59" W  View metadata report for BODC series reference number 344694
3447011986-06-03 22:53 54° 22' 59" N  4° 4' 0" W  View metadata report for BODC series reference number 344701
3447131986-06-04 00:41 54° 25' 0" N  3° 57' 0" W  View metadata report for BODC series reference number 344713
3447251986-06-04 02:05 54° 27' 0" N  3° 49' 59" W  View metadata report for BODC series reference number 344725
3447371986-06-04 03:36 54° 30' 0" N  3° 42' 0" W  View metadata report for BODC series reference number 344737
3447491986-06-04 23:33 54° 34' 59" N  4° 20' 59" W  View metadata report for BODC series reference number 344749
3447501986-06-05 01:16 54° 30' 0" N  4° 22' 0" W  View metadata report for BODC series reference number 344750
3447621986-06-05 13:38 54° 38' 59" N  3° 43' 59" W  View metadata report for BODC series reference number 344762
3447741986-06-05 14:39 54° 38' 59" N  3° 43' 59" W  View metadata report for BODC series reference number 344774
3447861986-06-05 15:30 54° 38' 59" N  3° 43' 59" W  View metadata report for BODC series reference number 344786
3447981986-06-05 16:31 54° 38' 59" N  3° 43' 59" W  View metadata report for BODC series reference number 344798
3448051986-06-05 17:29 54° 38' 59" N  3° 43' 59" W  View metadata report for BODC series reference number 344805
3448171986-06-05 18:28 54° 38' 59" N  3° 43' 59" W  View metadata report for BODC series reference number 344817
3448291986-06-05 19:41 54° 38' 59" N  3° 43' 59" W  View metadata report for BODC series reference number 344829
3448301986-06-05 20:35 54° 38' 59" N  3° 43' 59" W  View metadata report for BODC series reference number 344830
3448421986-06-05 21:37 54° 38' 59" N  3° 43' 59" W  View metadata report for BODC series reference number 344842
3448541986-06-05 22:35 54° 38' 59" N  3° 43' 59" W  View metadata report for BODC series reference number 344854
3448661986-06-05 23:36 54° 38' 59" N  3° 43' 59" W  View metadata report for BODC series reference number 344866
3448781986-06-06 00:39 54° 38' 59" N  3° 43' 59" W  View metadata report for BODC series reference number 344878
3448911986-06-06 01:36 54° 38' 59" N  3° 43' 59" W  View metadata report for BODC series reference number 344891
3449091986-06-06 05:20 55° 57' 0" N  6° 34' 59" W  View metadata report for BODC series reference number 344909
3449101986-06-06 05:52 55° 52' 59" N  6° 28' 59" W  View metadata report for BODC series reference number 344910
3449221986-06-06 06:40 54° 31' 59" N  4° 35' 59" W  View metadata report for BODC series reference number 344922
3449341986-06-06 07:31 54° 34' 30" N  4° 42' 0" W  View metadata report for BODC series reference number 344934
3449461986-06-06 08:30 54° 37' 59" N  4° 46' 0" W  View metadata report for BODC series reference number 344946
3449581986-06-06 11:47 54° 40' 0" N  5° 30' 0" W  View metadata report for BODC series reference number 344958
3449711986-06-06 12:44 54° 41' 35" N  5° 25' 0" W  View metadata report for BODC series reference number 344971
3449831986-06-06 14:02 54° 43' 11" N  5° 19' 59" W  View metadata report for BODC series reference number 344983
3461911986-06-14 19:30 56° 40' 0" N  6° 7' 59" W  View metadata report for BODC series reference number 346191
3462091986-06-14 20:23 56° 37' 0" N  6° 0' 29" W  View metadata report for BODC series reference number 346209
3462101986-06-14 21:14 56° 32' 30" N  5° 54' 0" W  View metadata report for BODC series reference number 346210
3462221986-06-14 21:54 56° 31' 29" N  5° 46' 30" W  View metadata report for BODC series reference number 346222
3462341986-06-14 22:57 56° 29' 30" N  5° 38' 30" W  View metadata report for BODC series reference number 346234
3462461986-06-15 00:02 56° 23' 59" N  5° 37' 59" W  View metadata report for BODC series reference number 346246
1  Savonius rotor current meter
Moored instrument depth
Horizontal velocity of the water column (currents)
Temperature of the water column
Date and time
Moored instrument depth
Horizontal velocity of the water column (currents)
Temperature of the water column
Date and time

BODC idDate/TimeLocationDoc.
610921986-06-14 19:00  — 1986-08-28 09:29:42 56° 37' 23" N  6° 24' 11" W  View metadata report for BODC series reference number 61092